Time;durP1;ratioP1;P1;durP2;ratioP2;P2;SDS_P1;SDS_P2;PMS_P1;PMS_P2;Temp;Humidity;BMP_temperature;BMP_pressure;BME280_temperature;BME280_humidity;BME280_pressure;Samples;Min_cycle;Max_cycle;Signal;HPM_P1;HPM_P2
2022/11/20 00:01:32;;;;;;;14.18;5.90;;;6.50;99.90;;;;;;5017979;28;20042;-61
2022/11/20 00:04:00;;;;;;;17.92;6.53;;;6.50;99.90;;;;;;5010081;28;20505;-62
2022/11/20 00:06:30;;;;;;;17.13;5.32;;;6.50;99.90;;;;;;5018600;28;20053;-62
2022/11/20 00:09:01;;;;;;;30.70;6.40;;;6.50;99.90;;;;;;5020990;28;20520;-66
2022/11/20 00:11:31;;;;;;;13.82;6.15;;;6.50;99.90;;;;;;5005767;28;20057;-76
2022/11/20 00:14:01;;;;;;;12.77;5.28;;;6.50;99.90;;;;;;5008631;28;20038;-66
2022/11/20 00:16:31;;;;;;;21.38;6.97;;;6.50;99.90;;;;;;5010908;28;20523;-61
2022/11/20 00:18:59;;;;;;;17.98;6.82;;;6.50;99.90;;;;;;5023856;28;20061;-64
2022/11/20 00:21:28;;;;;;;14.93;7.78;;;6.50;99.90;;;;;;5012170;28;20044;-71
2022/11/20 00:23:57;;;;;;;18.42;6.68;;;6.50;99.90;;;;;;5027068;28;20421;-69
2022/11/20 00:26:26;;;;;;;12.98;5.85;;;6.50;99.90;;;;;;5029031;28;20064;-65
2022/11/20 00:28:56;;;;;;;14.25;5.90;;;6.50;99.90;;;;;;5028416;28;20061;-66
2022/11/20 00:31:25;;;;;;;12.38;5.38;;;6.50;99.90;;;;;;5008857;28;20053;-66
2022/11/20 00:33:53;;;;;;;22.17;5.78;;;6.50;99.90;;;;;;5013457;28;20038;-78
2022/11/20 00:36:23;;;;;;;10.75;6.43;;;6.50;99.90;;;;;;5015016;28;20046;-67
2022/11/20 00:38:52;;;;;;;16.90;6.13;;;6.40;99.90;;;;;;5019515;28;20045;-64
2022/11/20 00:41:21;;;;;;;16.65;6.13;;;6.50;99.90;;;;;;5014447;28;20493;-66
2022/11/20 00:43:49;;;;;;;16.92;5.60;;;6.50;99.90;;;;;;5018274;28;20040;-67
2022/11/20 00:46:19;;;;;;;14.18;4.70;;;6.50;99.90;;;;;;5017635;28;20042;-62
2022/11/20 00:48:47;;;;;;;14.38;6.80;;;6.40;99.90;;;;;;5025579;28;20474;-64
2022/11/20 00:51:18;;;;;;;19.27;6.32;;;6.40;99.90;;;;;;5022894;28;20050;-62
2022/11/20 00:53:47;;;;;;;18.73;6.30;;;6.40;99.90;;;;;;5009708;28;20057;-61
2022/11/20 00:56:17;;;;;;;14.60;5.68;;;6.40;99.90;;;;;;5028488;28;20041;-62
2022/11/20 00:58:48;;;;;;;13.98;5.60;;;6.40;99.90;;;;;;5021633;28;20045;-61
2022/11/20 01:01:24;;;;;;;13.95;5.22;;;6.40;99.90;;;;;;5014323;28;20050;-61
2022/11/20 01:03:54;;;;;;;19.48;5.35;;;6.40;99.90;;;;;;5009327;28;20482;-61
2022/11/20 01:06:32;;;;;;;10.88;4.30;;;6.30;99.90;;;;;;5012645;28;20072;-61
2022/11/20 01:09:05;;;;;;;14.93;4.75;;;6.30;99.90;;;;;;5017768;28;20046;-62
2022/11/20 01:11:36;;;;;;;7.82;3.97;;;6.30;99.90;;;;;;5013124;28;20079;-72
2022/11/20 01:14:05;;;;;;;11.68;5.32;;;6.30;99.90;;;;;;5026443;28;20046;-61
2022/11/20 01:16:36;;;;;;;18.10;6.18;;;6.30;99.90;;;;;;5025567;28;20050;-61
2022/11/20 01:19:06;;;;;;;10.75;5.15;;;6.30;99.90;;;;;;5022802;28;20046;-66
2022/11/20 01:21:38;;;;;;;17.88;4.80;;;6.20;99.90;;;;;;5023007;28;20053;-62
2022/11/20 01:24:08;;;;;;;15.68;4.82;;;6.20;99.90;;;;;;5012576;28;20056;-62
2022/11/20 01:26:38;;;;;;;19.73;5.55;;;6.30;99.90;;;;;;5026698;28;20482;-62
2022/11/20 01:29:08;;;;;;;22.83;6.28;;;6.20;99.90;;;;;;5024626;28;20056;-61
2022/11/20 01:31:37;;;;;;;10.48;4.93;;;6.20;99.90;;;;;;5013607;28;20050;-61
2022/11/20 01:34:07;;;;;;;14.13;4.47;;;6.20;99.90;;;;;;5012275;28;20575;-65
2022/11/20 01:36:36;;;;;;;16.08;4.43;;;6.20;99.90;;;;;;5002618;28;20069;-61
2022/11/20 01:39:16;;;;;;;12.15;4.25;;;6.20;99.90;;;;;;5022849;28;20042;-61
2022/11/20 01:44:45;;;;;;;9.32;4.65;;;6.20;99.90;;;;;;5026347;28;20046;-62
2022/11/20 01:47:37;;;;;;;9.25;3.97;;;6.20;99.90;;;;;;5022138;28;20468;-61
2022/11/20 01:50:25;;;;;;;11.93;4.38;;;6.20;99.90;;;;;;5021193;28;20053;-61
2022/11/20 01:52:56;;;;;;;10.48;3.35;;;6.20;99.90;;;;;;5024440;28;20049;-67
2022/11/20 01:55:32;;;;;;;11.55;3.25;;;6.20;99.90;;;;;;5025937;28;20042;-62
2022/11/20 01:58:02;;;;;;;5.32;2.38;;;6.20;99.90;;;;;;5025370;28;20049;-62
2022/11/20 02:00:30;;;;;;;6.93;2.35;;;6.20;99.90;;;;;;5010137;28;20052;-61
2022/11/20 02:03:03;;;;;;;7.45;3.50;;;6.20;99.90;;;;;;5006838;28;20046;-61
2022/11/20 02:05:39;;;;;;;7.00;2.17;;;6.20;99.90;;;;;;5025558;28;20041;-61
2022/11/20 02:08:07;;;;;;;6.85;2.65;;;6.20;99.90;;;;;;5017117;28;20397;-61
2022/11/20 02:10:35;;;;;;;9.05;2.58;;;6.20;99.90;;;;;;5016497;28;20165;-61
2022/11/20 02:15:50;;;;;;;13.75;3.03;;;6.20;99.90;;;;;;5028783;28;20041;-61
2022/11/20 02:18:20;;;;;;;9.68;2.45;;;6.20;99.90;;;;;;5026973;28;20049;-62
2022/11/20 02:21:12;;;;;;;7.50;2.92;;;6.20;99.90;;;;;;5012371;28;20045;-63
2022/11/20 02:24:02;;;;;;;12.70;2.20;;;6.20;99.90;;;;;;5016773;28;20057;-62
2022/11/20 02:26:35;;;;;;;12.90;2.85;;;6.20;99.90;;;;;;5028425;28;20045;-62
2022/11/20 02:29:03;;;;;;;6.82;3.10;;;6.20;99.90;;;;;;5020904;28;20061;-62
2022/11/20 02:31:50;;;;;;;6.93;3.05;;;6.20;99.90;;;;;;5021075;28;20061;-62
2022/11/20 02:34:17;;;;;;;7.20;3.25;;;6.20;99.90;;;;;;5020774;28;20086;-72
2022/11/20 02:36:46;;;;;;;12.15;3.03;;;6.20;99.90;;;;;;5028414;28;20056;-73
2022/11/20 02:39:16;;;;;;;11.07;3.92;;;6.10;99.90;;;;;;5033487;28;20072;-79
2022/11/20 02:41:44;;;;;;;11.05;3.17;;;6.20;99.90;;;;;;5028002;28;20065;-76
2022/11/20 02:44:12;;;;;;;8.65;3.63;;;6.10;99.90;;;;;;5025988;28;20053;-61
2022/11/20 02:46:43;;;;;;;7.57;3.47;;;6.10;99.90;;;;;;5019323;28;20052;-79
2022/11/20 02:49:11;;;;;;;10.02;3.40;;;6.10;99.90;;;;;;5022553;28;20065;-77
2022/11/20 02:51:38;;;;;;;8.60;3.67;;;6.20;99.90;;;;;;5018597;28;20492;-79
2022/11/20 02:54:06;;;;;;;5.90;3.17;;;6.10;99.90;;;;;;5027460;28;20390;-77
2022/11/20 02:56:33;;;;;;;17.63;3.88;;;6.10;99.90;;;;;;5013797;28;20425;-78
2022/11/20 02:59:01;;;;;;;9.80;3.85;;;6.20;99.90;;;;;;5012460;28;20052;-80
2022/11/20 03:01:28;;;;;;;10.32;3.60;;;6.10;99.90;;;;;;5013707;28;20383;-79
2022/11/20 03:03:56;;;;;;;9.20;3.38;;;6.20;99.90;;;;;;5018781;28;20042;-80
2022/11/20 03:06:23;;;;;;;9.05;3.08;;;6.20;99.90;;;;;;5026456;28;20046;-80
2022/11/20 03:08:51;;;;;;;12.18;4.38;;;6.20;99.90;;;;;;5025942;28;20045;-78
2022/11/20 03:11:19;;;;;;;8.40;3.67;;;6.20;99.90;;;;;;5011661;28;20052;-80
2022/11/20 03:13:46;;;;;;;10.57;4.45;;;6.20;99.90;;;;;;5015176;28;20057;-84
2022/11/20 03:16:22;;;;;;;8.98;3.72;;;6.20;99.90;;;;;;5011645;28;20042;-74
2022/11/20 03:18:51;;;;;;;11.20;4.35;;;6.20;99.90;;;;;;5029220;28;20053;-65
2022/11/20 03:21:19;;;;;;;8.32;3.85;;;6.30;99.90;;;;;;5027814;28;20069;-62
2022/11/20 03:23:47;;;;;;;10.07;4.45;;;6.30;99.90;;;;;;5023238;28;20038;-65
2022/11/20 03:26:23;;;;;;;10.02;4.85;;;6.30;99.90;;;;;;5016639;28;20053;-62
2022/11/20 03:28:53;;;;;;;8.52;5.95;;;6.30;99.90;;;;;;5012487;28;20045;-63
2022/11/20 03:31:29;;;;;;;12.60;4.97;;;6.30;99.90;;;;;;5014464;28;20430;-62
2022/11/20 03:33:58;;;;;;;15.57;5.95;;;6.30;99.90;;;;;;5030388;28;20068;-64
2022/11/20 03:36:27;;;;;;;15.43;4.95;;;6.30;99.90;;;;;;5031103;28;20041;-62
2022/11/20 03:38:56;;;;;;;12.35;4.93;;;6.30;99.90;;;;;;5011282;28;20085;-63
2022/11/20 03:41:29;;;;;;;11.30;5.95;;;6.30;99.90;;;;;;5013146;28;20050;-62
2022/11/20 03:44:02;;;;;;;12.57;5.35;;;6.30;99.90;;;;;;5026365;28;20049;-61
2022/11/20 03:46:30;;;;;;;8.38;4.60;;;6.30;99.90;;;;;;5023755;28;20049;-62
2022/11/20 03:48:58;;;;;;;15.50;5.75;;;6.30;99.90;;;;;;5029444;28;20053;-61
2022/11/20 03:51:28;;;;;;;10.70;5.45;;;6.30;99.90;;;;;;5010553;28;20042;-62
2022/11/20 03:53:58;;;;;;;;;;;6.30;99.90;;;;;;5011915;28;20050;-63
2022/11/20 03:56:31;;;;;;;16.38;5.38;;;6.30;99.90;;;;;;5019165;28;20278;-61
2022/11/20 03:58:59;;;;;;;10.02;5.40;;;6.30;99.90;;;;;;5013730;28;20038;-62
2022/11/20 04:01:31;;;;;;;10.77;5.60;;;6.30;99.90;;;;;;5018522;28;20053;-62
2022/11/20 04:04:00;;;;;;;9.95;4.72;;;6.40;99.90;;;;;;5017171;28;20045;-61
2022/11/20 04:06:30;;;;;;;12.18;5.53;;;6.40;99.90;;;;;;5020073;28;20046;-61
2022/11/20 04:08:59;;;;;;;10.68;5.97;;;6.40;99.90;;;;;;5013161;28;20057;-61
2022/11/20 04:11:32;;;;;;;10.05;5.30;;;6.40;99.90;;;;;;5014241;28;20409;-62
2022/11/20 04:14:02;;;;;;;10.30;5.25;;;6.40;99.90;;;;;;5012122;28;20058;-61
2022/11/20 04:16:35;;;;;;;12.20;5.00;;;6.40;99.90;;;;;;5015802;28;20054;-61
2022/11/20 04:19:06;;;;;;;7.28;4.18;;;6.40;99.90;;;;;;5023442;28;20050;-61
2022/11/20 04:21:33;;;;;;;7.07;4.45;;;6.40;99.90;;;;;;5011708;28;20046;-61
2022/11/20 04:24:01;;;;;;;8.40;5.07;;;6.50;99.90;;;;;;5016881;28;20054;-61
2022/11/20 04:26:30;;;;;;;9.00;4.55;;;6.50;99.90;;;;;;5021914;28;20056;-63
2022/11/20 04:28:58;;;;;;;6.88;4.30;;;6.50;99.90;;;;;;5015285;28;20405;-75
2022/11/20 04:31:28;;;;;;;11.15;4.70;;;6.50;99.90;;;;;;5014041;28;20050;-76
2022/11/20 04:34:00;;;;;;;8.57;4.80;;;6.50;99.90;;;;;;5017632;28;20042;-80
2022/11/20 04:36:29;;;;;;;11.05;5.40;;;6.60;99.90;;;;;;5021434;28;20053;-72
2022/11/20 04:38:59;;;;;;;8.27;4.47;;;6.60;99.90;;;;;;5022397;28;20052;-79
2022/11/20 04:41:30;;;;;;;7.90;4.43;;;6.60;99.90;;;;;;5017086;28;20052;-80
2022/11/20 04:44:02;;;;;;;8.43;4.28;;;6.60;99.90;;;;;;5021703;28;20064;-75
2022/11/20 04:46:32;;;;;;;8.20;4.15;;;6.70;99.90;;;;;;5030943;28;20042;-73
2022/11/20 04:48:59;;;;;;;10.80;4.55;;;6.70;99.90;;;;;;5019092;28;20060;-76
2022/11/20 04:51:27;;;;;;;9.13;4.93;;;6.70;99.90;;;;;;5012924;28;20502;-74
2022/11/20 04:53:55;;;;;;;9.93;4.78;;;6.70;99.90;;;;;;5022721;28;20046;-74
2022/11/20 04:56:22;;;;;;;9.57;4.40;;;6.80;99.90;;;;;;5012589;28;20061;-72
2022/11/20 04:58:50;;;;;;;8.27;4.70;;;6.80;99.90;;;;;;5030374;28;20053;-76
2022/11/20 05:01:20;;;;;;;10.20;5.20;;;6.80;99.90;;;;;;5031244;28;20050;-75
2022/11/20 05:03:48;;;;;;;6.70;4.68;;;6.80;99.90;;;;;;5031543;28;20049;-76
2022/11/20 05:06:19;;;;;;;7.47;5.00;;;6.80;99.90;;;;;;5024701;28;20218;-67
2022/11/20 05:08:46;;;;;;;11.57;5.53;;;6.80;99.90;;;;;;5026356;28;20049;-70
2022/11/20 05:11:17;;;;;;;10.30;5.72;;;6.80;99.90;;;;;;5024941;28;20045;-75
2022/11/20 05:13:45;;;;;;;12.38;5.10;;;6.90;99.90;;;;;;5016631;28;20046;-72
2022/11/20 05:16:16;;;;;;;7.78;4.80;;;6.90;99.90;;;;;;5018173;28;20046;-78
2022/11/20 05:18:44;;;;;;;9.60;4.93;;;6.90;99.90;;;;;;5031363;28;20049;-79
2022/11/20 05:21:12;;;;;;;8.57;5.03;;;6.90;99.90;;;;;;5026443;28;20038;-77
2022/11/20 05:23:40;;;;;;;12.60;5.32;;;6.90;99.90;;;;;;5018594;28;20045;-77
2022/11/20 05:26:21;;;;;;;10.98;4.70;;;6.90;99.90;;;;;;5011142;28;20048;-77
2022/11/20 05:28:49;;;;;;;9.18;4.97;;;7.00;99.90;;;;;;5026784;28;20042;-77
2022/11/20 05:31:20;;;;;;;7.88;4.80;;;7.00;99.90;;;;;;5012279;28;20061;-72
2022/11/20 05:33:55;;;;;;;10.45;5.25;;;6.90;99.90;;;;;;5027161;28;20041;-77
2022/11/20 05:36:23;;;;;;;7.87;4.50;;;6.90;99.90;;;;;;5016567;28;20402;-77
2022/11/20 05:38:50;;;;;;;11.18;4.88;;;6.90;99.90;;;;;;5012762;28;20307;-74
2022/11/20 05:41:25;;;;;;;9.35;4.75;;;6.80;99.90;;;;;;5014734;28;20224;-76
2022/11/20 05:43:52;;;;;;;10.60;4.70;;;6.70;99.90;;;;;;5023890;28;20487;-78
2022/11/20 05:46:21;;;;;;;10.98;5.15;;;6.60;99.90;;;;;;5018360;28;20052;-76
2022/11/20 05:48:57;;;;;;;10.88;5.60;;;6.40;99.90;;;;;;5020926;28;20062;-80
2022/11/20 05:51:25;;;;;;;13.25;5.18;;;6.40;99.90;;;;;;5030341;28;20037;-78
2022/11/20 05:53:52;;;;;;;7.35;4.40;;;6.30;99.90;;;;;;5027676;28;20382;-76
2022/11/20 05:56:21;;;;;;;11.27;4.68;;;6.30;99.90;;;;;;5018245;28;20525;-77
2022/11/20 05:58:49;;;;;;;18.90;5.57;;;6.20;99.90;;;;;;5025594;28;20120;-77
2022/11/20 06:01:22;;;;;;;13.35;5.90;;;6.20;99.90;;;;;;5028214;28;20040;-76
2022/11/20 06:03:52;;;;;;;14.63;6.32;;;6.10;99.90;;;;;;5009775;28;20050;-79
2022/11/20 06:06:20;;;;;;;21.25;7.78;;;6.10;99.90;;;;;;5019725;28;20042;-80
2022/11/20 06:08:48;;;;;;;13.75;7.63;;;3.70;99.90;;;;;;5020281;28;20069;-78
2022/11/20 06:11:16;;;;;;;18.88;7.28;;;6.00;99.90;;;;;;5010950;28;20050;-74
2022/11/20 06:13:45;;;;;;;13.57;6.90;;;6.00;99.90;;;;;;5029368;28;20060;-77
2022/11/20 06:16:16;;;;;;;14.38;7.38;;;5.90;99.90;;;;;;5031276;28;20226;-78
2022/11/20 06:18:43;;;;;;;14.32;7.30;;;5.90;99.90;;;;;;5029525;28;20058;-76
2022/11/20 06:21:16;;;;;;;21.70;7.93;;;5.80;99.90;;;;;;5019414;28;20037;-62
2022/11/20 06:23:45;;;;;;;18.25;7.50;;;5.80;99.90;;;;;;5023363;28;20045;-62
2022/11/20 06:26:22;;;;;;;19.52;7.63;;;5.80;99.90;;;;;;5009348;28;20046;-63
2022/11/20 06:28:51;;;;;;;16.17;7.95;;;5.70;99.90;;;;;;5023802;28;20045;-62
2022/11/20 06:31:21;;;;;;;14.07;7.25;;;5.60;99.90;;;;;;4994552;28;20141;-62
2022/11/20 06:33:50;;;;;;;19.73;8.38;;;5.60;99.90;;;;;;5028294;28;20056;-62
2022/11/20 06:36:20;;;;;;;15.18;7.70;;;5.60;99.90;;;;;;5026341;28;20054;-61
2022/11/20 06:38:48;;;;;;;23.33;8.98;;;5.50;99.90;;;;;;4999514;28;20053;-68
2022/11/20 06:41:18;;;;;;;20.00;8.85;;;5.50;99.90;;;;;;5009714;28;20061;-68
2022/11/20 06:43:47;;;;;;;14.30;6.60;;;5.40;99.90;;;;;;5023175;28;20053;-62
2022/11/20 06:46:19;;;;;;;16.63;7.72;;;5.50;99.90;;;;;;5026430;28;20054;-64
2022/11/20 06:48:47;;;;;;;20.15;7.50;;;5.50;99.90;;;;;;5026978;28;20045;-64
2022/11/20 06:51:16;;;;;;;15.60;6.78;;;5.50;99.90;;;;;;5007431;28;20405;-62
2022/11/20 06:53:47;;;;;;;13.63;6.60;;;5.50;99.90;;;;;;5010347;28;20049;-62
2022/11/20 06:56:15;;;;;;;19.75;6.97;;;5.50;99.90;;;;;;5007082;28;20057;-65
2022/11/20 06:58:43;;;;;;;18.05;6.07;;;5.50;99.90;;;;;;5020017;28;20041;-62
2022/11/20 07:01:12;;;;;;;20.23;7.00;;;5.50;99.90;;;;;;5016015;28;20413;-62
2022/11/20 07:03:41;;;;;;;19.30;6.57;;;5.50;99.90;;;;;;5019686;28;20060;-63
2022/11/20 07:06:09;;;;;;;15.68;6.57;;;5.60;99.90;;;;;;5010805;28;20053;-62
2022/11/20 07:08:37;;;;;;;20.65;7.32;;;5.50;99.90;;;;;;5020900;28;20045;-63
2022/11/20 07:11:06;;;;;;;10.32;5.72;;;5.50;99.90;;;;;;5027528;28;20049;-62
2022/11/20 07:13:34;;;;;;;13.98;7.07;;;5.60;99.90;;;;;;5027420;28;20050;-62
2022/11/20 07:16:07;;;;;;;11.57;5.90;;;5.60;99.90;;;;;;5013369;28;20493;-62
2022/11/20 07:18:35;;;;;;;13.95;7.07;;;5.60;99.90;;;;;;5023833;28;20045;-62
2022/11/20 07:21:04;;;;;;;18.88;5.38;;;5.60;99.90;;;;;;5015071;28;20068;-62
2022/11/20 07:23:32;;;;;;;;;;;5.60;99.90;;;;;;5014563;28;20045;-61
2022/11/20 07:26:08;;;;;;;16.52;5.50;;;5.50;99.90;;;;;;5008934;28;19921;-62
2022/11/20 07:28:36;;;;;;;19.33;7.65;;;5.50;99.90;;;;;;5018961;28;20050;-73
2022/11/20 07:31:04;;;;;;;21.42;7.88;;;5.50;99.90;;;;;;5014090;28;20056;-71
2022/11/20 07:33:32;;;;;;;22.85;6.68;;;5.50;99.90;;;;;;5023873;28;20054;-70
2022/11/20 07:36:01;;;;;;;18.75;7.75;;;5.50;99.90;;;;;;5027497;28;20053;-66
2022/11/20 07:38:30;;;;;;;19.38;7.75;;;6.00;99.90;;;;;;5017129;28;20053;-78
2022/11/20 07:40:58;;;;;;;15.03;6.97;;;5.50;99.90;;;;;;5014597;28;20052;-82
2022/11/20 07:43:25;;;;;;;16.75;6.57;;;5.50;99.90;;;;;;5027797;28;20042;-75
2022/11/20 07:45:57;;;;;;;18.70;6.53;;;5.40;99.90;;;;;;5011239;28;20053;-75
2022/11/20 07:48:25;;;;;;;15.88;5.22;;;5.40;99.90;;;;;;5019383;28;20057;-67
2022/11/20 07:50:57;;;;;;;13.73;5.60;;;5.40;99.90;;;;;;5028312;28;20045;-65
2022/11/20 07:53:24;;;;;;;15.20;5.10;;;5.50;99.90;;;;;;5025231;28;20053;-72
2022/11/20 07:55:52;;;;;;;14.35;6.40;;;5.40;99.90;;;;;;5010299;28;20057;-62
2022/11/20 07:58:21;;;;;;;16.70;7.22;;;5.40;99.90;;;;;;5015885;28;20056;-62
2022/11/20 08:00:49;;;;;;;15.70;6.97;;;5.40;99.90;;;;;;5003813;28;20065;-73
2022/11/20 08:03:17;;;;;;;18.15;7.07;;;5.40;99.90;;;;;;5021878;28;20057;-62
2022/11/20 08:05:51;;;;;;;22.17;6.15;;;5.40;99.90;;;;;;5004244;28;20044;-74
2022/11/20 08:08:19;;;;;;;31.75;7.95;;;5.40;99.90;;;;;;5011963;28;20049;-80
2022/11/20 08:10:47;;;;;;;20.20;6.70;;;5.40;99.90;;;;;;5011295;28;20056;-78
2022/11/20 08:16:01;;;;;;;26.75;7.22;;;5.50;99.90;;;;;;5027692;28;20057;-64
2022/11/20 08:18:28;;;;;;;22.67;6.45;;;5.50;99.90;;;;;;5026324;28;20413;-73
2022/11/20 08:21:03;;;;;;;26.73;6.80;;;5.50;99.90;;;;;;5012513;28;20053;-73
2022/11/20 08:23:32;;;;;;;12.63;4.88;;;5.50;99.90;;;;;;5023047;28;20493;-71
2022/11/20 08:25:59;;;;;;;19.58;5.13;;;5.50;99.90;;;;;;5017391;28;20053;-71
2022/11/20 08:28:27;;;;;;;20.02;4.30;;;5.50;99.90;;;;;;5027744;28;20505;-80
2022/11/20 08:31:00;;;;;;;28.77;4.88;;;5.60;99.90;;;;;;5027187;28;20508;-74
2022/11/20 08:33:29;;;;;;;16.45;4.68;;;5.50;99.90;;;;;;5027289;28;20049;-73
2022/11/20 08:36:04;;;;;;;19.30;4.00;;;5.50;99.90;;;;;;5024234;28;20057;-71
2022/11/20 08:38:32;;;;;;;19.70;4.63;;;5.50;99.90;;;;;;5011480;28;20057;-77
2022/11/20 08:43:52;;;;;;;28.58;4.55;;;5.50;99.90;;;;;;5019752;28;20046;-68
2022/11/20 08:46:20;;;;;;;20.10;3.17;;;5.50;99.90;;;;;;5020029;28;20539;-79
2022/11/20 08:48:48;;;;;;;24.30;4.28;;;5.50;99.90;;;;;;5012715;28;20046;-69
2022/11/20 08:51:16;;;;;;;23.17;3.03;;;5.60;99.90;;;;;;5018826;28;20041;-63
2022/11/20 08:53:44;;;;;;;19.15;3.40;;;5.60;99.90;;;;;;5014365;28;20493;-63
2022/11/20 08:56:15;;;;;;;17.58;3.10;;;5.60;99.90;;;;;;5018389;28;20045;-71
2022/11/20 08:58:42;;;;;;;17.42;3.08;;;5.60;99.90;;;;;;5013068;28;20068;-75
2022/11/20 09:01:30;;;;;;;19.67;3.53;;;5.60;99.90;;;;;;5024773;28;20049;-67
2022/11/20 09:03:59;;;;;;;20.42;2.70;;;5.50;99.90;;;;;;5018281;28;20056;-63
2022/11/20 09:06:27;;;;;;;10.43;2.90;;;5.60;99.90;;;;;;5012694;28;20477;-62
2022/11/20 09:08:55;;;;;;;17.90;2.83;;;5.70;99.90;;;;;;5010510;28;21048;-62
2022/11/20 09:11:22;;;;;;;17.73;2.78;;;5.60;99.90;;;;;;5023215;28;20034;-63
2022/11/20 09:13:50;;;;;;;26.00;3.30;;;5.70;99.90;;;;;;5024361;28;20397;-62
2022/11/20 09:16:18;;;;;;;13.45;2.67;;;5.70;99.90;;;;;;5019151;28;20056;-62
2022/11/20 09:18:46;;;;;;;15.02;2.92;;;5.80;99.90;;;;;;4995503;28;20050;-63
2022/11/20 09:21:28;;;;;;;14.43;2.78;;;5.80;99.90;;;;;;5014940;28;20045;-64
2022/11/20 09:23:56;;;;;;;19.73;2.85;;;5.80;99.90;;;;;;5015262;28;20037;-62
2022/11/20 09:26:23;;;;;;;17.50;2.85;;;5.90;99.90;;;;;;5027992;28;20037;-62
2022/11/20 09:28:51;;;;;;;26.52;3.63;;;6.00;99.90;;;;;;5031532;28;20050;-62
2022/11/20 09:31:26;;;;;;;17.95;2.15;;;6.30;99.90;;;;;;5013704;28;20041;-62
2022/11/20 09:33:53;;;;;;;18.55;3.00;;;6.30;99.90;;;;;;5015845;28;20050;-62
2022/11/20 09:36:21;;;;;;;28.90;2.97;;;6.50;99.90;;;;;;5016975;28;20486;-61
2022/11/20 09:38:48;;;;;;;17.27;2.97;;;6.50;99.90;;;;;;5029060;28;20045;-62
2022/11/20 09:41:53;;;;;;;13.85;2.67;;;6.60;99.90;;;;;;5022481;28;20050;-62
2022/11/20 09:44:40;;;;;;;13.75;2.78;;;6.70;99.90;;;;;;5020146;28;20429;-62
2022/11/20 09:47:33;;;;;;;16.60;3.17;;;6.80;99.90;;;;;;5013097;28;20061;-61
2022/11/20 09:50:23;;;;;;;20.05;3.45;;;6.80;99.90;;;;;;5011798;28;20056;-62
2022/11/20 09:53:13;;;;;;;22.70;3.53;;;6.90;99.90;;;;;;5007039;28;20046;-62
2022/11/20 09:55:42;;;;;;;20.83;3.00;;;6.90;99.90;;;;;;5011563;28;20608;-62
2022/11/20 09:58:34;;;;;;;19.98;2.78;;;7.00;99.90;;;;;;5019254;28;20053;-61
2022/11/20 10:01:14;;;;;;;27.83;3.22;;;7.10;99.90;;;;;;5024222;28;20042;-61
2022/11/20 10:04:03;;;;;;;19.63;2.85;;;7.10;99.90;;;;;;5019367;28;20056;-64
2022/11/20 10:06:33;;;;;;;17.77;3.22;;;7.20;99.90;;;;;;5010002;28;20045;-62
2022/11/20 10:09:12;;;;;;;23.63;3.67;;;7.40;99.90;;;;;;5022628;28;20394;-61
2022/11/20 10:11:58;;;;;;;27.70;3.33;;;7.40;99.90;;;;;;5013258;28;20061;-62
2022/11/20 10:14:38;;;;;;;20.27;3.20;;;7.60;99.90;;;;;;5011680;28;20061;-66
2022/11/20 10:17:15;;;;;;;15.30;2.80;;;7.60;99.90;;;;;;5014107;28;20390;-72
2022/11/20 10:20:13;;;;;;;33.63;3.85;;;7.60;99.90;;;;;;5018384;28;20046;-73
2022/11/20 10:23:05;;;;;;;18.13;2.42;;;7.80;99.90;;;;;;5021755;28;20041;-74
2022/11/20 10:25:43;;;;;;;24.73;2.55;;;7.80;99.90;;;;;;5023329;28;20064;-80
2022/11/20 10:28:26;;;;;;;8.25;1.48;;;7.80;99.90;;;;;;5014842;28;20041;-62
2022/11/20 10:31:03;;;;;;;22.35;2.92;;;7.90;99.90;;;;;;5018526;28;20041;-73
2022/11/20 10:33:39;;;;;;;19.30;2.80;;;8.00;99.90;;;;;;5030323;28;20049;-85
2022/11/20 10:36:40;;;;;;;20.88;3.10;;;8.00;99.90;;;;;;5016367;28;20054;-78
2022/11/20 10:39:30;;;;;;;12.68;3.10;;;8.10;99.90;;;;;;5017399;28;20033;-80
2022/11/20 10:42:00;;;;;;;10.60;2.85;;;8.10;99.90;;;;;;5012670;28;20049;-71
2022/11/20 10:47:31;;;;;;;14.90;2.38;;;8.20;99.90;;;;;;5014060;28;20413;-72
2022/11/20 10:50:04;;;;;;;14.60;3.67;;;8.30;99.90;;;;;;5012361;28;20042;-61
2022/11/20 10:52:32;;;;;;;18.60;2.67;;;8.50;99.90;;;;;;5010740;28;20049;-69
2022/11/20 10:55:11;;;;;;;16.15;2.65;;;8.50;99.90;;;;;;5011535;28;20045;-64
2022/11/20 10:58:01;;;;;;;13.57;2.10;;;8.60;99.90;;;;;;5009310;28;20532;-61
2022/11/20 11:00:31;;;;;;;18.08;3.47;;;8.70;99.90;;;;;;5009568;28;20062;-65
2022/11/20 11:03:02;;;;;;;13.85;2.20;;;8.80;99.90;;;;;;5008032;28;20053;-65
2022/11/20 11:05:42;;;;;;;12.93;2.10;;;9.00;99.90;;;;;;4999495;28;20057;-60
2022/11/20 11:08:19;;;;;;;17.33;3.00;;;9.30;99.90;;;;;;5012955;28;20059;-60
2022/11/20 11:10:57;;;;;;;18.83;2.30;;;9.30;99.90;;;;;;5012385;28;20322;-62
2022/11/20 11:13:27;;;;;;;14.38;2.10;;;9.60;99.90;;;;;;5027507;28;20060;-69
2022/11/20 11:15:56;;;;;;;20.88;3.00;;;9.80;99.90;;;;;;5029966;28;20413;-60
2022/11/20 11:18:31;;;;;;;17.70;1.95;;;9.80;99.90;;;;;;5029487;28;20045;-60
2022/11/20 11:21:02;;;;;;;10.68;2.45;;;10.00;99.90;;;;;;5028794;28;20405;-61
2022/11/20 11:23:39;;;;;;;16.30;2.10;;;10.20;99.90;;;;;;5028010;28;20519;-62
2022/11/20 11:26:19;;;;;;;17.15;1.73;;;10.40;99.90;;;;;;5010861;28;20137;-64
2022/11/20 11:29:03;;;;;;;16.90;3.17;;;10.60;99.90;;;;;;5009788;28;20511;-61
2022/11/20 11:31:33;;;;;;;17.55;2.85;;;10.70;99.90;;;;;;4989090;28;20397;-61
2022/11/20 11:34:29;;;;;;;9.85;2.42;;;10.70;99.90;;;;;;5013685;28;20053;-60
2022/11/20 11:36:59;;;;;;;13.07;1.92;;;10.90;99.90;;;;;;5025496;28;20073;-61
2022/11/20 11:39:29;;;;;;;20.85;2.40;;;11.00;99.90;;;;;;5026102;28;20060;-60
2022/11/20 11:42:11;;;;;;;16.42;2.15;;;11.00;99.90;;;;;;5025522;28;20049;-62
2022/11/20 11:47:43;;;;;;;15.57;2.25;;;11.20;99.90;;;;;;5010492;28;20049;-60
2022/11/20 11:50:11;;;;;;;;;;;11.10;99.90;;;;;;5008197;28;20092;-60
2022/11/20 11:53:04;;;;;;;19.67;2.70;;;10.90;99.90;;;;;;5011253;28;19928;-60
2022/11/20 11:55:44;;;;;;;16.88;1.80;;;10.30;99.90;;;;;;5013154;28;20386;-60
2022/11/20 11:58:37;;;;;;;15.50;2.72;;;10.00;99.90;;;;;;5011875;28;20053;-60
2022/11/20 12:01:41;;;;;;;18.35;2.70;;;10.00;99.90;;;;;;5006383;28;20073;-60
2022/11/20 12:04:43;;;;;;;9.30;1.92;;;9.70;99.90;;;;;;5018615;28;20057;-60
2022/11/20 12:07:40;;;;;;;21.38;2.58;;;9.50;99.90;;;;;;5006263;28;20053;-60
2022/11/20 12:10:40;;;;;;;12.93;1.77;;;9.40;99.90;;;;;;5005922;28;20050;-67
2022/11/20 12:13:26;;;;;;;17.42;3.50;;;9.30;99.90;;;;;;5014208;28;20061;-60
2022/11/20 12:15:54;;;;;;;14.68;2.40;;;9.20;99.90;;;;;;5004530;28;20061;-60
2022/11/20 12:18:22;;;;;;;18.95;2.17;;;9.10;99.90;;;;;;5019363;28;20042;-73
2022/11/20 12:21:31;;;;;;;14.07;2.80;;;9.10;99.90;;;;;;5005902;28;20521;-77
2022/11/20 12:24:29;;;;;;;14.23;2.83;;;9.10;99.90;;;;;;5018642;28;20060;-70
2022/11/20 12:27:18;;;;;;;12.13;2.13;;;9.00;99.90;;;;;;5016594;28;20068;-71
2022/11/20 12:29:49;;;;;;;18.85;2.70;;;9.00;99.90;;;;;;5008466;28;20042;-60
2022/11/20 12:32:44;;;;;;;14.57;1.52;;;9.00;99.90;;;;;;5024580;28;20049;-72
2022/11/20 12:35:33;;;;;;;11.73;2.17;;;8.90;99.90;;;;;;5021673;28;20859;-75
2022/11/20 12:38:19;;;;;;;20.02;2.85;;;8.90;99.90;;;;;;5018663;28;20041;-60
2022/11/20 12:40:50;;;;;;;12.95;2.65;;;8.90;99.90;;;;;;5017520;28;20060;-64
2022/11/20 12:46:40;;;;;;;10.75;1.63;;;8.90;99.90;;;;;;5023030;28;20046;-60
2022/11/20 12:49:20;;;;;;;14.80;3.13;;;8.90;99.90;;;;;;5014954;28;20048;-60
2022/11/20 12:51:55;;;;;;;22.67;2.58;;;8.90;99.90;;;;;;5012454;28;20493;-62
2022/11/20 12:54:53;;;;;;;17.27;2.90;;;8.90;99.90;;;;;;5010606;28;20045;-64
2022/11/20 12:57:26;;;;;;;14.45;1.85;;;8.90;99.90;;;;;;5004728;28;20053;-64
2022/11/20 13:00:07;;;;;;;15.15;2.17;;;8.90;99.90;;;;;;5003776;28;20049;-75
2022/11/20 13:03:00;;;;;;;27.05;2.83;;;8.90;99.90;;;;;;5013155;28;20049;-75
2022/11/20 13:05:33;;;;;;;18.33;2.80;;;8.30;99.90;;;;;;5011503;28;20046;-73
2022/11/20 13:08:02;;;;;;;8.68;1.90;;;8.80;99.90;;;;;;5021513;28;20045;-80
2022/11/20 13:10:45;;;;;;;18.88;1.83;;;8.80;99.90;;;;;;5024641;28;20053;-77
2022/11/20 13:13:22;;;;;;;13.00;2.17;;;8.80;99.90;;;;;;5003700;28;20069;-77
2022/11/20 13:16:19;;;;;;;12.00;1.85;;;8.70;99.90;;;;;;5004315;28;20049;-68
2022/11/20 13:18:47;;;;;;;11.98;1.55;;;8.70;99.90;;;;;;5007795;28;20057;-62
2022/11/20 13:21:34;;;;;;;11.88;1.70;;;8.70;99.90;;;;;;5006940;28;20038;-62
2022/11/20 13:24:07;;;;;;;17.95;3.00;;;8.70;99.90;;;;;;5008096;28;20053;-61
2022/11/20 13:26:34;;;;;;;24.25;2.35;;;8.70;99.90;;;;;;5005668;28;20057;-61
2022/11/20 13:29:20;;;;;;;20.20;2.42;;;8.70;99.90;;;;;;5008019;28;20053;-61
2022/11/20 13:31:48;;;;;;;22.25;1.92;;;8.70;99.90;;;;;;5004606;28;20604;-63
2022/11/20 13:34:27;;;;;;;17.20;2.90;;;8.70;99.90;;;;;;5013258;28;20052;-61
2022/11/20 13:36:57;;;;;;;11.55;2.33;;;8.60;99.90;;;;;;5007649;28;20065;-65
2022/11/20 13:39:27;;;;;;;23.45;3.03;;;8.60;99.90;;;;;;5020746;28;20413;-61